Time;durP1;ratioP1;P1;durP2;ratioP2;P2;SDS_P1;SDS_P2;PMS_P1;PMS_P2;Temp;Humidity;BMP_temperature;BMP_pressure;BME280_temperature;BME280_humidity;BME280_pressure;Samples;Min_cycle;Max_cycle;Signal;HPM_P1;HPM_P2
2022/04/11 00:02:15;;;;;;;4.63;2.43;;;4.40;1.00;;;;;;5034319;28;20457;-52
2022/04/11 00:04:44;;;;;;;2.90;2.17;;;4.40;1.00;;;;;;5034207;28;20495;-51
2022/04/11 00:07:10;;;;;;;3.70;2.57;;;4.50;1.00;;;;;;5033879;28;20472;-53
2022/04/11 00:09:37;;;;;;;5.03;2.33;;;4.50;1.00;;;;;;5034125;28;20449;-55
2022/04/11 00:12:04;;;;;;;4.40;2.80;;;4.50;1.00;;;;;;5034087;28;20461;-49
2022/04/11 00:14:31;;;;;;;3.53;2.17;;;4.40;1.00;;;;;;5034033;28;20511;-53
2022/04/11 00:16:57;;;;;;;4.57;2.20;;;4.50;1.00;;;;;;5033517;28;20473;-50
2022/04/11 00:19:24;;;;;;;3.87;2.37;;;4.50;1.00;;;;;;5033728;28;20449;-50
2022/04/11 00:21:52;;;;;;;3.60;2.57;;;4.50;1.00;;;;;;5033687;28;20295;-52
2022/04/11 00:24:19;;;;;;;5.43;1.93;;;4.50;1.00;;;;;;5033988;28;20226;-51
2022/04/11 00:26:45;;;;;;;4.23;2.80;;;4.50;1.00;;;;;;5033428;28;20230;-52
2022/04/11 00:29:12;;;;;;;3.37;2.40;;;4.60;1.00;;;;;;5033953;28;20449;-54
2022/04/11 00:31:39;;;;;;;3.17;2.20;;;4.60;1.00;;;;;;5033511;28;21139;-48
2022/04/11 00:34:06;;;;;;;3.30;2.10;;;4.50;1.00;;;;;;5032958;28;20207;-53
2022/04/11 00:36:33;;;;;;;4.30;2.47;;;4.60;1.00;;;;;;5033371;28;20261;-48
2022/04/11 00:39:01;;;;;;;5.93;2.23;;;4.60;1.00;;;;;;5033757;28;20210;-51
2022/04/11 00:41:27;;;;;;;3.80;2.83;;;4.60;1.00;;;;;;5033720;28;20454;-55
2022/04/11 00:43:54;;;;;;;3.60;2.50;;;4.60;1.00;;;;;;5033461;28;20547;-52
2022/04/11 00:46:21;;;;;;;3.10;2.03;;;4.50;1.00;;;;;;5033102;28;20994;-51
2022/04/11 00:48:47;;;;;;;7.27;2.87;;;4.50;1.00;;;;;;5033214;28;20463;-51
2022/04/11 00:51:20;;;;;;;4.63;2.27;;;4.50;1.00;;;;;;5033416;28;20484;-48
2022/04/11 00:53:47;;;;;;;4.60;2.50;;;4.50;1.00;;;;;;5033436;28;20453;-50
2022/04/11 00:56:18;;;;;;;3.67;2.60;;;4.50;1.00;;;;;;5033031;28;20449;-50
2022/04/11 00:58:44;;;;;;;3.73;2.53;;;4.50;1.00;;;;;;5033166;28;20453;-53
2022/04/11 01:01:11;;;;;;;3.30;1.90;;;4.40;1.00;;;;;;5033115;28;20264;-51
2022/04/11 01:03:38;;;;;;;3.90;2.40;;;4.50;1.00;;;;;;5032999;28;20481;-53
2022/04/11 01:06:06;;;;;;;4.33;2.50;;;4.40;1.00;;;;;;5032559;28;20869;-49
2022/04/11 01:08:33;;;;;;;3.50;2.47;;;4.50;1.00;;;;;;5033164;28;20926;-53
2022/04/11 01:11:01;;;;;;;3.67;2.30;;;4.50;1.00;;;;;;5032591;28;20449;-51
2022/04/11 01:13:29;;;;;;;2.97;2.10;;;4.40;1.00;;;;;;5033015;28;20460;-52
2022/04/11 01:15:57;;;;;;;2.90;2.03;;;4.50;1.00;;;;;;5032194;28;20465;-51
2022/04/11 01:18:24;;;;;;;3.20;2.10;;;4.50;1.00;;;;;;5032989;28;20253;-49
2022/04/11 01:20:51;;;;;;;6.77;2.20;;;4.50;1.00;;;;;;5032830;28;20479;-50
2022/04/11 01:23:19;;;;;;;5.33;2.43;;;4.50;1.00;;;;;;5032497;28;20539;-47
2022/04/11 01:25:50;;;;;;;4.90;1.90;;;4.50;1.00;;;;;;5032285;28;20706;-50
2022/04/11 01:28:17;;;;;;;5.33;2.90;;;4.50;1.00;;;;;;5032137;28;20556;-51
2022/04/11 01:30:44;;;;;;;5.13;2.47;;;4.50;1.00;;;;;;5032405;28;20519;-47
2022/04/11 01:33:21;;;;;;;6.00;2.30;;;4.50;1.00;;;;;;5032329;28;20207;-48
2022/04/11 01:35:48;;;;;;;2.77;2.17;;;4.60;1.00;;;;;;5032742;28;20206;-47
2022/04/11 01:38:15;;;;;;;3.87;2.40;;;4.60;1.00;;;;;;5031956;28;20499;-47
2022/04/11 01:40:50;;;;;;;4.00;1.97;;;4.60;1.00;;;;;;5032467;28;20449;-51
2022/04/11 01:43:17;;;;;;;3.67;2.60;;;4.60;1.00;;;;;;5032318;28;20514;-51
2022/04/11 01:45:44;;;;;;;5.87;2.03;;;4.60;1.00;;;;;;5032571;28;20461;-50
2022/04/11 01:48:10;;;;;;;3.43;1.97;;;4.60;1.00;;;;;;5031940;28;20477;-47
2022/04/11 01:50:37;;;;;;;3.33;2.53;;;4.60;1.00;;;;;;5032085;28;20457;-49
2022/04/11 01:53:06;;;;;;;3.27;2.10;;;4.60;1.00;;;;;;5032302;28;21025;-48
2022/04/11 01:55:33;;;;;;;5.40;2.27;;;4.60;1.00;;;;;;5031917;28;20461;-50
2022/04/11 01:58:01;;;;;;;3.97;2.27;;;4.60;1.00;;;;;;5031929;28;20279;-51
2022/04/11 02:00:27;;;;;;;4.80;2.13;;;4.60;1.00;;;;;;5031966;28;20943;-55
2022/04/11 02:02:54;;;;;;;2.40;2.17;;;4.60;1.00;;;;;;5032371;28;20511;-49
2022/04/11 02:05:21;;;;;;;4.17;2.30;;;4.60;1.00;;;;;;5032002;28;20515;-47
2022/04/11 02:07:48;;;;;;;2.53;2.23;;;4.60;1.00;;;;;;5031548;28;20473;-49
2022/04/11 02:10:14;;;;;;;3.80;2.13;;;4.60;1.00;;;;;;5031900;28;20515;-49
2022/04/11 02:12:42;;;;;;;6.47;2.80;;;4.60;1.00;;;;;;5032036;28;20507;-48
2022/04/11 02:15:11;;;;;;;2.60;2.20;;;4.60;1.00;;;;;;5032159;28;20865;-50
2022/04/11 02:17:37;;;;;;;4.20;2.80;;;4.60;1.00;;;;;;5031409;28;20478;-53
2022/04/11 02:20:06;;;;;;;3.13;2.47;;;4.70;1.00;;;;;;5031936;28;20449;-51
2022/04/11 02:22:44;;;;;;;4.30;2.43;;;4.70;1.00;;;;;;5031595;28;21008;-49
2022/04/11 02:25:10;;;;;;;2.90;2.20;;;4.70;1.00;;;;;;5031970;28;20584;-50
2022/04/11 02:27:37;;;;;;;2.83;2.17;;;4.70;1.00;;;;;;5031385;28;20535;-50
2022/04/11 02:30:04;;;;;;;4.03;2.60;;;4.70;1.00;;;;;;5031892;28;20499;-50
2022/04/11 02:32:33;;;;;;;2.30;2.10;;;4.70;1.00;;;;;;5031883;28;20453;-52
2022/04/11 02:34:59;;;;;;;3.30;2.43;;;4.70;1.00;;;;;;5031929;28;20446;-54
2022/04/11 02:37:26;;;;;;;5.03;2.63;;;4.80;1.00;;;;;;5032083;28;20457;-56
2022/04/11 02:39:53;;;;;;;3.37;2.43;;;4.90;1.00;;;;;;5031680;28;20515;-50
2022/04/11 02:42:21;;;;;;;2.73;2.50;;;4.90;1.00;;;;;;5031681;28;20990;-51
2022/04/11 02:44:48;;;;;;;2.80;2.47;;;4.90;1.00;;;;;;5031494;28;20576;-50
2022/04/11 02:47:15;;;;;;;4.17;2.67;;;5.00;1.00;;;;;;5030997;28;21030;-50
2022/04/11 02:49:43;;;;;;;3.50;2.40;;;5.00;1.00;;;;;;5031282;28;20874;-48
2022/04/11 02:52:10;;;;;;;2.93;2.57;;;5.00;1.00;;;;;;5032039;28;20519;-54
2022/04/11 02:54:37;;;;;;;4.90;1.97;;;5.10;1.00;;;;;;5033578;28;20211;-56
2022/04/11 02:57:04;;;;;;;4.10;2.07;;;5.10;1.00;;;;;;5035808;28;20235;-55
2022/04/11 02:59:32;;;;;;;3.30;2.30;;;5.10;1.00;;;;;;5036682;28;20205;-53
2022/04/11 03:01:59;;;;;;;2.43;2.10;;;5.10;1.00;;;;;;5035200;28;20206;-50
2022/04/11 03:04:26;;;;;;;2.50;2.30;;;5.00;1.00;;;;;;5035123;28;20284;-53
2022/04/11 03:06:54;;;;;;;3.90;2.60;;;5.00;1.00;;;;;;5034930;28;20234;-51
2022/04/11 03:09:21;;;;;;;2.37;1.90;;;5.00;1.00;;;;;;5035386;28;20495;-53
2022/04/11 03:11:48;;;;;;;2.83;2.60;;;4.90;1.00;;;;;;5035392;28;20206;-54
2022/04/11 03:14:14;;;;;;;5.00;2.30;;;4.90;1.00;;;;;;5035045;28;20495;-52
2022/04/11 03:16:41;;;;;;;1.70;1.60;;;4.90;1.00;;;;;;5034878;28;20230;-54
2022/04/11 03:19:08;;;;;;;5.77;2.70;;;4.90;1.00;;;;;;5035188;28;20901;-52
2022/04/11 03:21:35;;;;;;;2.97;2.40;;;4.90;1.00;;;;;;5035242;28;20507;-54
2022/04/11 03:24:04;;;;;;;6.13;2.30;;;4.90;1.00;;;;;;5034926;28;20226;-53
2022/04/11 03:26:30;;;;;;;6.07;2.50;;;4.90;1.00;;;;;;5034698;28;20861;-52
2022/04/11 03:28:57;;;;;;;6.67;2.73;;;5.00;1.00;;;;;;5034845;28;20275;-51
2022/04/11 03:31:24;;;;;;;4.10;2.47;;;5.00;1.00;;;;;;5034505;28;20453;-52
2022/04/11 03:33:50;;;;;;;4.00;2.33;;;5.00;1.00;;;;;;5035158;28;20206;-49
2022/04/11 03:36:17;;;;;;;3.70;2.23;;;5.00;1.00;;;;;;5034567;28;20210;-51
2022/04/11 03:38:44;;;;;;;2.97;2.10;;;5.00;1.00;;;;;;5034909;28;20267;-55
2022/04/11 03:41:11;;;;;;;2.87;2.60;;;5.10;1.00;;;;;;5034569;28;20206;-53
2022/04/11 03:43:38;;;;;;;5.20;2.30;;;5.00;1.00;;;;;;5034601;28;20468;-54
2022/04/11 03:46:05;;;;;;;2.90;2.60;;;5.00;1.00;;;;;;5034481;28;20642;-53
2022/04/11 03:48:32;;;;;;;3.70;2.33;;;5.00;1.00;;;;;;5034444;28;20564;-50
2022/04/11 03:50:58;;;;;;;2.63;2.43;;;5.00;1.00;;;;;;5034725;28;20257;-50
2022/04/11 03:53:25;;;;;;;4.40;2.37;;;5.00;1.00;;;;;;5034224;28;20213;-52
2022/04/11 03:55:52;;;;;;;6.23;3.40;;;5.00;1.00;;;;;;5034245;28;20211;-53
2022/04/11 03:58:20;;;;;;;6.80;3.73;;;5.00;1.00;;;;;;5034094;28;20468;-54
2022/04/11 04:00:46;;;;;;;3.70;2.37;;;5.10;1.00;;;;;;5034533;28;20268;-54
2022/04/11 04:03:14;;;;;;;2.37;2.17;;;5.10;1.00;;;;;;5034536;28;20256;-50
2022/04/11 04:05:41;;;;;;;3.87;2.17;;;5.10;1.00;;;;;;5034206;28;21022;-52
2022/04/11 04:08:08;;;;;;;3.40;2.33;;;5.10;1.00;;;;;;5032644;28;20555;-52
2022/04/11 04:10:35;;;;;;;4.93;2.23;;;5.10;1.00;;;;;;5034264;28;20258;-48
2022/04/11 04:13:02;;;;;;;3.73;2.37;;;5.10;1.00;;;;;;5034146;28;20457;-49
2022/04/11 04:15:30;;;;;;;2.57;2.13;;;5.10;1.00;;;;;;5034253;28;20301;-51
2022/04/11 04:17:58;;;;;;;5.20;2.53;;;5.10;1.00;;;;;;5033667;28;20241;-53
2022/04/11 04:20:26;;;;;;;4.03;2.20;;;5.00;1.00;;;;;;5034037;28;20445;-50
2022/04/11 04:22:52;;;;;;;4.97;1.93;;;5.00;1.00;;;;;;5034120;28;20862;-51
2022/04/11 04:25:19;;;;;;;3.03;2.30;;;5.00;1.00;;;;;;5033559;28;20534;-55
2022/04/11 04:27:46;;;;;;;3.43;2.23;;;5.00;1.00;;;;;;5033574;28;20234;-50
2022/04/11 04:30:13;;;;;;;5.30;2.33;;;5.00;1.00;;;;;;5033874;28;20210;-51
2022/04/11 04:32:42;;;;;;;3.10;1.87;;;5.00;1.00;;;;;;5033879;28;20206;-49
2022/04/11 04:35:10;;;;;;;2.70;2.10;;;5.00;1.00;;;;;;5033794;28;20488;-50
2022/04/11 04:37:37;;;;;;;4.70;2.00;;;4.90;1.00;;;;;;5033181;28;20926;-52
2022/04/11 04:40:04;;;;;;;3.20;2.10;;;4.90;1.00;;;;;;5033455;28;20268;-50
2022/04/11 04:42:31;;;;;;;2.73;1.80;;;4.80;1.00;;;;;;5033663;28;20214;-51
2022/04/11 04:44:58;;;;;;;5.73;2.60;;;4.80;1.00;;;;;;5033550;28;20284;-50
2022/04/11 04:47:25;;;;;;;3.57;2.03;;;4.80;1.00;;;;;;5033117;28;20559;-55
2022/04/11 04:49:53;;;;;;;3.40;2.20;;;4.80;1.00;;;;;;5031250;28;20234;-53
2022/04/11 04:52:20;;;;;;;4.20;2.60;;;4.80;1.00;;;;;;5032511;28;20677;-53
2022/04/11 04:54:46;;;;;;;2.87;2.47;;;4.70;1.00;;;;;;5032855;28;20457;-51
2022/04/11 04:57:14;;;;;;;2.50;2.30;;;4.80;1.00;;;;;;5033069;28;20473;-51
2022/04/11 04:59:40;;;;;;;3.63;2.40;;;4.70;1.00;;;;;;5033287;28;20214;-54
2022/04/11 05:02:07;;;;;;;3.53;2.30;;;4.70;1.00;;;;;;5033272;28;20457;-52
2022/04/11 05:04:34;;;;;;;3.00;2.63;;;4.70;1.00;;;;;;5032839;28;20226;-55
2022/04/11 05:07:02;;;;;;;4.63;2.20;;;4.60;1.00;;;;;;5032758;28;20476;-52
2022/04/11 05:09:29;;;;;;;2.50;2.10;;;4.60;1.00;;;;;;5032875;28;20936;-54
2022/04/11 05:11:55;;;;;;;2.50;1.87;;;4.60;1.00;;;;;;5032991;28;20457;-52
2022/04/11 05:14:22;;;;;;;2.97;2.33;;;4.50;1.00;;;;;;5032894;28;20210;-53
2022/04/11 05:16:49;;;;;;;2.67;2.47;;;4.50;1.00;;;;;;5032348;28;20476;-53
2022/04/11 05:19:15;;;;;;;3.60;2.50;;;4.50;1.00;;;;;;5032604;28;20508;-52
2022/04/11 05:21:42;;;;;;;4.50;2.80;;;4.50;1.00;;;;;;5032350;28;20461;-52
2022/04/11 05:24:10;;;;;;;4.50;2.13;;;4.40;1.00;;;;;;5033886;28;20487;-52
2022/04/11 05:26:37;;;;;;;4.17;2.27;;;4.50;1.00;;;;;;5032180;28;20456;-53
2022/04/11 05:29:04;;;;;;;4.00;2.17;;;4.50;1.00;;;;;;5032477;28;20452;-48
2022/04/11 05:31:31;;;;;;;3.13;2.30;;;4.50;1.00;;;;;;5032564;28;20459;-51
2022/04/11 05:33:59;;;;;;;6.30;2.87;;;4.50;1.00;;;;;;5031949;28;20503;-48
2022/04/11 05:36:26;;;;;;;3.07;2.33;;;4.50;1.00;;;;;;5031916;28;20458;-50
2022/04/11 05:38:52;;;;;;;6.53;2.70;;;4.60;1.00;;;;;;5032050;28;20499;-56
2022/04/11 05:41:20;;;;;;;3.60;2.50;;;4.60;1.00;;;;;;5032495;28;20504;-56
2022/04/11 05:43:47;;;;;;;7.53;2.60;;;4.70;1.00;;;;;;5032472;28;20345;-55
2022/04/11 05:46:13;;;;;;;3.60;2.33;;;4.70;1.00;;;;;;5031427;28;20484;-57
2022/04/11 05:48:40;;;;;;;3.93;2.30;;;4.80;1.00;;;;;;5032047;28;20292;-52
2022/04/11 05:51:07;;;;;;;7.20;2.30;;;4.90;1.00;;;;;;5031750;28;20214;-55
2022/04/11 05:53:34;;;;;;;3.87;3.00;;;4.90;1.00;;;;;;5032209;28;20272;-51
2022/04/11 05:56:01;;;;;;;3.70;2.37;;;5.10;1.00;;;;;;5031589;28;20272;-56
2022/04/11 05:58:29;;;;;;;3.47;2.27;;;5.20;1.00;;;;;;5011755;28;20235;-58
2022/04/11 06:00:57;;;;;;;4.60;2.57;;;5.30;1.00;;;;;;5032297;28;20213;-58
2022/04/11 06:03:23;;;;;;;6.47;2.67;;;5.40;1.00;;;;;;5031699;28;20620;-57
2022/04/11 06:05:50;;;;;;;4.20;2.03;;;5.50;1.00;;;;;;5031216;28;20640;-56
2022/04/11 06:08:17;;;;;;;2.73;2.07;;;5.60;1.00;;;;;;5030914;28;20227;-55
2022/04/11 06:10:44;;;;;;;3.40;2.03;;;5.70;1.00;;;;;;5031475;28;20672;-58
2022/04/11 06:13:11;;;;;;;7.80;2.90;;;5.90;1.00;;;;;;5031443;28;20684;-54
2022/04/11 06:15:39;;;;;;;5.90;3.47;;;6.00;1.00;;;;;;5031103;28;20255;-54
2022/04/11 06:18:05;;;;;;;2.17;2.00;;;6.20;1.00;;;;;;5030660;28;20652;-57
2022/04/11 06:20:32;;;;;;;5.93;2.50;;;6.30;1.00;;;;;;5031215;28;20209;-55
2022/04/11 06:22:59;;;;;;;5.63;2.73;;;6.50;1.00;;;;;;5031637;28;20258;-56
2022/04/11 06:25:26;;;;;;;7.77;2.80;;;6.60;1.00;;;;;;5031012;28;20228;-54
2022/04/11 06:27:52;;;;;;;3.70;2.40;;;6.70;1.00;;;;;;5030515;28;20241;-56
2022/04/11 06:30:19;;;;;;;4.13;2.40;;;6.80;1.00;;;;;;5030575;28;20206;-56
2022/04/11 06:32:47;;;;;;;3.40;2.43;;;6.80;1.00;;;;;;5031310;28;20278;-59
2022/04/11 06:35:14;;;;;;;3.90;2.63;;;6.90;1.00;;;;;;5031490;28;20203;-56
2022/04/11 06:37:41;;;;;;;3.57;2.57;;;6.90;1.00;;;;;;5030471;28;20226;-54
2022/04/11 06:40:09;;;;;;;4.13;2.23;;;7.00;1.00;;;;;;5031364;28;20217;-56
2022/04/11 06:42:35;;;;;;;4.37;2.83;;;7.10;1.00;;;;;;5031436;28;20210;-54
2022/04/11 06:45:04;;;;;;;3.17;2.23;;;7.20;1.00;;;;;;5030652;28;20222;-54
2022/04/11 06:47:31;;;;;;;2.77;1.90;;;7.40;1.00;;;;;;5030680;28;20320;-59
2022/04/11 06:49:59;;;;;;;5.83;2.20;;;7.50;1.00;;;;;;5031054;28;20210;-58
2022/04/11 06:52:26;;;;;;;4.40;2.23;;;7.60;1.00;;;;;;5031266;28;20280;-57
2022/04/11 06:54:53;;;;;;;6.53;2.33;;;7.70;1.00;;;;;;5031772;28;20576;-57
2022/04/11 06:57:19;;;;;;;2.47;1.87;;;7.90;1.00;;;;;;5030229;28;20222;-56
2022/04/11 06:59:46;;;;;;;4.30;2.63;;;8.00;1.00;;;;;;5030741;28;20669;-59
2022/04/11 07:02:13;;;;;;;3.83;2.33;;;8.20;1.00;;;;;;5030530;28;20214;-54
2022/04/11 07:04:39;;;;;;;3.13;1.93;;;8.30;1.00;;;;;;5031214;28;20203;-56
2022/04/11 07:07:07;;;;;;;3.70;2.17;;;8.40;1.00;;;;;;5030583;28;20277;-58
2022/04/11 07:09:34;;;;;;;5.60;2.50;;;8.50;1.00;;;;;;5030433;28;20560;-54
2022/04/11 07:12:01;;;;;;;4.43;1.93;;;8.60;1.00;;;;;;5030903;28;20210;-52
2022/04/11 07:14:27;;;;;;;3.10;2.03;;;8.80;1.00;;;;;;5030691;28;20218;-58
2022/04/11 07:16:54;;;;;;;3.20;2.30;;;8.90;1.00;;;;;;5030682;28;20230;-57
2022/04/11 07:19:21;;;;;;;4.77;2.20;;;9.10;1.00;;;;;;5030954;28;20210;-53
2022/04/11 07:21:48;;;;;;;4.90;2.27;;;9.10;1.00;;;;;;5030678;28;20223;-52
2022/04/11 07:24:16;;;;;;;5.10;2.20;;;9.30;1.00;;;;;;5030827;28;20202;-54
2022/04/11 07:26:43;;;;;;;4.40;2.37;;;9.30;1.00;;;;;;5029957;28;20230;-53
2022/04/11 07:29:10;;;;;;;5.03;2.53;;;9.40;1.00;;;;;;5030761;28;20758;-56
2022/04/11 07:31:37;;;;;;;5.37;2.83;;;9.50;1.00;;;;;;5030333;28;20281;-55
2022/04/11 07:34:04;;;;;;;3.53;2.67;;;9.50;1.00;;;;;;5030730;28;20203;-57
2022/04/11 07:36:31;;;;;;;3.97;2.70;;;9.70;1.00;;;;;;5030214;28;20239;-53
2022/04/11 07:38:58;;;;;;;4.37;2.70;;;9.80;1.00;;;;;;5030015;28;20217;-52
2022/04/11 07:41:27;;;;;;;7.37;3.13;;;9.90;1.00;;;;;;5030545;28;20206;-51
2022/04/11 07:43:54;;;;;;;4.40;3.00;;;9.90;1.00;;;;;;5033735;28;20243;-54
2022/04/11 07:46:21;;;;;;;3.50;2.63;;;10.10;1.00;;;;;;5033816;28;20270;-50
2022/04/11 07:48:48;;;;;;;5.27;2.70;;;10.20;1.00;;;;;;5033579;28;20224;-54
2022/04/11 07:51:14;;;;;;;6.60;2.90;;;10.40;1.00;;;;;;5033940;28;20259;-52
2022/04/11 07:53:41;;;;;;;4.80;2.87;;;10.60;1.00;;;;;;5033779;28;20207;-58
2022/04/11 07:56:08;;;;;;;6.50;2.70;;;10.40;1.00;;;;;;5033381;28;20268;-58
2022/04/11 07:58:36;;;;;;;4.60;3.07;;;10.50;1.00;;;;;;5033764;28;20232;-56
2022/04/11 08:01:03;;;;;;;10.07;3.70;;;10.60;1.00;;;;;;5033350;28;20213;-60
2022/04/11 08:03:29;;;;;;;3.97;2.60;;;10.80;1.00;;;;;;5033753;28;20213;-59
2022/04/11 08:05:56;;;;;;;3.93;2.60;;;10.70;1.00;;;;;;5033835;28;20236;-60
2022/04/11 08:08:23;;;;;;;3.57;2.30;;;10.80;1.00;;;;;;5032987;28;20236;-60
2022/04/11 08:10:49;;;;;;;4.63;2.27;;;10.80;1.00;;;;;;5033966;28;20243;-59
2022/04/11 08:13:16;;;;;;;5.03;2.47;;;10.80;1.00;;;;;;5033390;28;20276;-60
2022/04/11 08:15:44;;;;;;;4.17;2.80;;;10.60;1.00;;;;;;5033559;28;20204;-59
2022/04/11 08:18:11;;;;;;;6.50;2.70;;;10.60;1.00;;;;;;5032921;28;20226;-60
2022/04/11 08:20:38;;;;;;;3.87;2.60;;;10.70;1.00;;;;;;5033411;28;20266;-59
2022/04/11 08:23:05;;;;;;;5.67;3.07;;;10.80;1.00;;;;;;5033409;28;20215;-59
2022/04/11 08:25:32;;;;;;;2.80;2.43;;;10.90;1.00;;;;;;5032978;28;20594;-59
2022/04/11 08:27:58;;;;;;;3.40;2.50;;;11.10;1.00;;;;;;5032779;28;20233;-58
2022/04/11 08:30:26;;;;;;;3.63;2.53;;;11.20;1.00;;;;;;5033086;28;20210;-58
2022/04/11 08:32:55;;;;;;;5.07;2.60;;;11.40;1.00;;;;;;5033331;28;20248;-50
2022/04/11 08:35:23;;;;;;;3.97;2.10;;;11.30;1.00;;;;;;5032941;28;20289;-57
2022/04/11 08:37:50;;;;;;;4.23;2.27;;;11.50;1.00;;;;;;5032036;28;20233;-56
2022/04/11 08:40:19;;;;;;;3.83;2.03;;;11.50;1.00;;;;;;5033152;28;20202;-56
2022/04/11 08:42:48;;;;;;;4.53;2.27;;;11.40;1.00;;;;;;5032898;28;20293;-57
2022/04/11 08:45:17;;;;;;;4.27;2.13;;;11.50;1.00;;;;;;5032936;28;20217;-58
2022/04/11 08:47:44;;;;;;;2.83;2.37;;;11.60;1.00;;;;;;5032197;28;20258;-55
2022/04/11 08:50:13;;;;;;;3.23;2.37;;;11.80;1.00;;;;;;5032515;28;20206;-58
2022/04/11 08:52:40;;;;;;;3.83;2.10;;;11.80;1.00;;;;;;5032975;28;20248;-56
2022/04/11 08:55:08;;;;;;;5.07;2.07;;;11.80;1.00;;;;;;5032568;28;20206;-56
2022/04/11 08:57:36;;;;;;;4.40;2.40;;;11.80;1.00;;;;;;5032320;28;20649;-57
2022/04/11 09:00:05;;;;;;;6.17;2.50;;;11.80;1.00;;;;;;5032653;28;20206;-57
2022/04/11 09:02:33;;;;;;;3.27;2.40;;;11.70;1.00;;;;;;5032182;28;20234;-57
2022/04/11 09:05:00;;;;;;;4.40;2.33;;;12.00;1.00;;;;;;5032636;28;20633;-57
2022/04/11 09:07:28;;;;;;;5.00;2.33;;;11.90;1.00;;;;;;5031840;28;20276;-56
2022/04/11 09:10:00;;;;;;;5.00;2.57;;;11.90;1.00;;;;;;5032358;28;20211;-54
2022/04/11 09:12:27;;;;;;;4.50;2.63;;;11.80;1.00;;;;;;5032202;28;20206;-55
2022/04/11 09:14:56;;;;;;;3.77;2.37;;;11.90;1.00;;;;;;5032414;28;20206;-58
2022/04/11 09:17:23;;;;;;;3.17;2.30;;;12.10;1.00;;;;;;5031311;28;20292;-55
2022/04/11 09:20:06;;;;;;;3.83;2.50;;;12.10;1.00;;;;;;5032198;28;20673;-53
2022/04/11 09:22:34;;;;;;;5.57;2.47;;;12.10;1.00;;;;;;5032412;28;20300;-59
2022/04/11 09:25:09;;;;;;;5.07;2.60;;;12.40;1.00;;;;;;5031767;28;20206;-52
2022/04/11 09:27:35;;;;;;;3.47;2.43;;;12.50;1.00;;;;;;5031918;28;20234;-57
2022/04/11 09:30:02;;;;;;;2.60;1.97;;;12.60;1.00;;;;;;5032433;28;20210;-56
2022/04/11 09:32:28;;;;;;;6.80;3.03;;;12.70;1.00;;;;;;5032576;28;20260;-56
2022/04/11 09:34:56;;;;;;;3.93;2.63;;;12.50;1.00;;;;;;5031773;28;20211;-57
2022/04/11 09:37:22;;;;;;;4.70;2.70;;;12.60;1.00;;;;;;5031340;28;20283;-55
2022/04/11 09:39:56;;;;;;;3.00;2.20;;;12.50;1.00;;;;;;5031598;28;20203;-53
2022/04/11 09:42:31;;;;;;;4.70;2.37;;;12.60;1.00;;;;;;5031863;28;20310;-52
2022/04/11 09:44:59;;;;;;;3.97;2.47;;;12.60;1.00;;;;;;5031962;28;20759;-53
2022/04/11 09:47:27;;;;;;;5.47;2.80;;;12.90;1.00;;;;;;5030747;28;20236;-57
2022/04/11 09:49:53;;;;;;;7.17;3.00;;;13.00;1.00;;;;;;5031608;28;20264;-57
2022/04/11 09:52:20;;;;;;;5.37;2.97;;;12.80;1.00;;;;;;5031754;28;20206;-59
2022/04/11 09:54:49;;;;;;;4.27;3.00;;;12.80;1.00;;;;;;5031298;28;20217;-55
2022/04/11 09:57:18;;;;;;;3.13;2.37;;;12.90;1.00;;;;;;5031415;28;20222;-60
2022/04/11 09:59:46;;;;;;;3.77;2.40;;;12.90;1.00;;;;;;5031299;28;20207;-59
2022/04/11 10:02:17;;;;;;;3.07;2.40;;;12.70;1.00;;;;;;5031647;28;20252;-59
2022/04/11 10:04:46;;;;;;;6.00;2.70;;;12.90;1.00;;;;;;5031111;28;20214;-59
2022/04/11 10:07:13;;;;;;;2.77;2.27;;;12.90;1.00;;;;;;5030206;28;20280;-60
2022/04/11 10:09:41;;;;;;;3.73;2.43;;;13.00;1.00;;;;;;5031373;28;20633;-54
2022/04/11 10:12:09;;;;;;;4.40;2.50;;;13.00;1.00;;;;;;5031219;28;20225;-58
2022/04/11 10:14:38;;;;;;;4.23;2.27;;;13.10;1.00;;;;;;5031656;28;20283;-59
2022/04/11 10:17:06;;;;;;;4.47;2.47;;;13.20;1.00;;;;;;5030586;28;20221;-58
2022/04/11 10:19:34;;;;;;;4.37;2.50;;;13.10;1.00;;;;;;5031055;28;20206;-58
2022/04/11 10:22:04;;;;;;;3.30;1.90;;;13.20;1.00;;;;;;5031434;28;20216;-60
2022/04/11 10:24:34;;;;;;;3.93;2.33;;;13.20;1.00;;;;;;5031127;28;20264;-54
2022/04/11 10:27:17;;;;;;;4.73;2.47;;;12.80;1.00;;;;;;5030851;28;20242;-57
2022/04/11 10:29:45;;;;;;;4.23;2.50;;;13.10;1.00;;;;;;5030707;28;20668;-57
2022/04/11 10:32:13;;;;;;;4.33;2.50;;;13.20;1.00;;;;;;5031015;28;20635;-59
2022/04/11 10:34:51;;;;;;;3.03;2.50;;;13.30;1.00;;;;;;5030640;28;20216;-58
2022/04/11 10:37:20;;;;;;;3.90;1.93;;;13.40;1.00;;;;;;5030622;28;20741;-59
2022/04/11 10:39:47;;;;;;;3.37;1.90;;;13.60;1.00;;;;;;5030757;28;20205;-59
2022/04/11 10:42:22;;;;;;;4.60;2.57;;;13.70;1.00;;;;;;5030810;28;20255;-59
2022/04/11 10:44:53;;;;;;;4.00;2.30;;;13.70;1.00;;;;;;5030804;28;20216;-57
2022/04/11 10:47:22;;;;;;;5.80;2.60;;;13.70;1.00;;;;;;5030098;28;20584;-59
2022/04/11 10:50:20;;;;;;;4.30;2.13;;;13.00;1.00;;;;;;5030977;28;20214;-58
2022/04/11 10:52:53;;;;;;;3.87;2.17;;;13.00;1.00;;;;;;5027412;28;20296;-59
2022/04/11 10:55:22;;;;;;;3.40;2.43;;;13.30;1.00;;;;;;5031009;28;20220;-59
2022/04/11 10:57:50;;;;;;;6.67;3.03;;;13.60;1.00;;;;;;5050570;28;20226;-57
2022/04/11 11:00:19;;;;;;;7.13;2.60;;;13.80;1.00;;;;;;5050809;28;20258;-56
2022/04/11 11:03:09;;;;;;;4.90;2.70;;;13.90;1.00;;;;;;5051050;28;20190;-57
2022/04/11 11:05:39;;;;;;;4.37;2.27;;;14.10;1.00;;;;;;5036210;28;20224;-59
2022/04/11 11:08:32;;;;;;;6.00;2.83;;;14.10;1.00;;;;;;5030565;28;20234;-60
2022/04/11 11:11:00;;;;;;;5.17;2.47;;;14.10;1.00;;;;;;5030748;28;20422;-59
2022/04/11 11:13:30;;;;;;;4.27;2.80;;;14.20;1.00;;;;;;5030869;28;20214;-60
2022/04/11 11:16:00;;;;;;;3.57;2.27;;;14.20;1.00;;;;;;5030109;28;20211;-58
2022/04/11 11:18:27;;;;;;;5.40;2.53;;;14.20;1.00;;;;;;5034170;28;20231;-59
2022/04/11 11:20:56;;;;;;;4.90;2.63;;;14.00;1.00;;;;;;5034904;28;20202;-61
2022/04/11 11:23:27;;;;;;;2.73;2.37;;;14.10;1.00;;;;;;5034178;28;20283;-59
2022/04/11 11:25:55;;;;;;;3.53;2.23;;;14.30;1.00;;;;;;5034116;28;20214;-60
2022/04/11 11:28:22;;;;;;;3.63;2.50;;;14.30;1.00;;;;;;5033545;28;20277;-62
2022/04/11 11:30:49;;;;;;;4.80;2.53;;;14.50;1.00;;;;;;5034817;28;20221;-61
2022/04/11 11:33:18;;;;;;;3.00;2.30;;;14.60;1.00;;;;;;5034141;28;20206;-61
2022/04/11 11:35:50;;;;;;;2.53;1.80;;;14.60;1.00;;;;;;5034148;28;20639;-61
2022/04/11 11:38:21;;;;;;;5.47;2.60;;;13.90;1.00;;;;;;5033880;28;20222;-59
2022/04/11 11:40:53;;;;;;;3.73;2.73;;;14.10;1.00;;;;;;5034116;28;20214;-60
2022/04/11 11:43:20;;;;;;;3.73;2.80;;;14.40;1.00;;;;;;5034438;28;20206;-59
2022/04/11 11:45:47;;;;;;;4.63;3.03;;;14.40;1.00;;;;;;5033969;28;20214;-60
2022/04/11 11:48:23;;;;;;;5.40;2.53;;;14.60;1.00;;;;;;5033563;28;20235;-59
2022/04/11 11:50:51;;;;;;;6.93;2.33;;;14.70;1.00;;;;;;5033975;28;20213;-59
2022/04/11 11:53:18;;;;;;;5.77;2.10;;;14.90;1.00;;;;;;5033232;28;20214;-59
2022/04/11 11:56:04;;;;;;;3.83;2.37;;;14.80;1.00;;;;;;5034078;28;20218;-60
2022/04/11 11:58:35;;;;;;;4.70;2.30;;;15.00;1.00;;;;;;5033179;28;20226;-60
2022/04/11 12:01:02;;;;;;;4.20;2.57;;;15.10;1.00;;;;;;5033740;28;20210;-62
2022/04/11 12:06:22;;;;;;;3.17;2.33;;;14.60;1.00;;;;;;5033353;28;20221;-63
2022/04/11 12:08:55;;;;;;;3.23;2.00;;;14.90;1.00;;;;;;5033898;28;20558;-62
2022/04/11 12:11:23;;;;;;;6.23;2.60;;;15.00;1.00;;;;;;5033023;28;20298;-62
2022/04/11 12:13:49;;;;;;;6.07;2.30;;;15.20;1.00;;;;;;5033706;28;20217;-61
2022/04/11 12:16:17;;;;;;;5.03;2.70;;;15.00;1.00;;;;;;5032698;28;20212;-61
2022/04/11 12:18:52;;;;;;;5.37;3.07;;;15.10;1.00;;;;;;5033307;28;20226;-61
2022/04/11 12:21:20;;;;;;;4.70;2.60;;;15.40;1.00;;;;;;5033274;28;20301;-60
2022/04/11 12:23:48;;;;;;;4.07;2.43;;;15.60;1.00;;;;;;5033373;28;20206;-60
2022/04/11 12:26:26;;;;;;;6.50;2.97;;;15.50;1.00;;;;;;5032983;28;20208;-60
2022/04/11 12:28:52;;;;;;;3.93;2.47;;;15.40;1.00;;;;;;5031786;28;20252;-61
2022/04/11 12:31:19;;;;;;;5.90;3.20;;;15.40;1.00;;;;;;5033467;28;20206;-60
2022/04/11 12:33:49;;;;;;;5.60;2.70;;;15.50;1.00;;;;;;5032977;28;20584;-62
2022/04/11 12:36:19;;;;;;;4.20;2.53;;;15.50;1.00;;;;;;5033076;28;20225;-62
2022/04/11 12:38:51;;;;;;;4.70;2.17;;;15.60;1.00;;;;;;5032925;28;20226;-63
2022/04/11 12:41:32;;;;;;;4.30;2.63;;;15.50;1.00;;;;;;5032743;28;20214;-65
2022/04/11 12:44:10;;;;;;;4.10;2.47;;;15.50;1.00;;;;;;5032977;28;20206;-63
2022/04/11 12:46:38;;;;;;;3.93;2.47;;;15.60;1.00;;;;;;5032611;28;20237;-62
2022/04/11 12:49:06;;;;;;;3.33;2.77;;;15.50;1.00;;;;;;5032494;28;20260;-60
2022/04/11 12:51:34;;;;;;;8.30;2.67;;;15.30;1.00;;;;;;5032256;28;20240;-60
2022/04/11 12:54:04;;;;;;;3.60;2.37;;;15.50;1.00;;;;;;5032865;28;20218;-62
2022/04/11 12:56:49;;;;;;;4.30;2.47;;;15.40;1.00;;;;;;5032695;28;20216;-61
2022/04/11 12:59:30;;;;;;;5.03;2.47;;;15.30;1.00;;;;;;5032885;28;20212;-62
2022/04/11 13:02:05;;;;;;;2.97;2.57;;;15.40;1.00;;;;;;5013404;28;20210;-57
2022/04/11 13:04:33;;;;;;;4.10;2.90;;;15.60;1.00;;;;;;5036221;28;20255;-56
2022/04/11 13:07:02;;;;;;;4.90;2.70;;;15.70;1.00;;;;;;5052376;28;20283;-58
2022/04/11 13:09:29;;;;;;;3.23;2.30;;;15.90;1.00;;;;;;5042393;28;20264;-58
2022/04/11 13:11:56;;;;;;;3.20;2.00;;;16.20;1.00;;;;;;5044145;28;20201;-59